createdAt,value
2018-04-11T00:00:57.103Z,0.00
2018-04-11T00:01:56.965Z,0.00
2018-04-11T00:02:56.954Z,0.00
2018-04-11T00:03:56.813Z,0.00
2018-04-11T00:04:56.817Z,0.00
2018-04-11T00:05:56.657Z,0.00
2018-04-11T00:06:56.635Z,0.00
2018-04-11T00:07:56.506Z,0.00
2018-04-11T00:08:56.539Z,0.00
2018-04-11T00:09:56.338Z,0.00
2018-04-11T00:10:56.351Z,0.00
2018-04-11T00:11:56.188Z,0.00
2018-04-11T00:12:56.191Z,0.00
2018-04-11T00:13:56.013Z,0.00
2018-04-11T00:14:56.075Z,0.00
2018-04-11T00:15:55.861Z,0.00
2018-04-11T00:16:55.881Z,0.00
2018-04-11T00:17:55.731Z,0.00
2018-04-11T00:18:55.690Z,0.00
2018-04-11T00:19:55.554Z,0.00
2018-04-11T00:20:55.599Z,0.00
2018-04-11T00:21:55.399Z,0.00
2018-04-11T00:22:55.407Z,0.00
2018-04-11T00:23:55.250Z,0.00
2018-04-11T00:24:55.217Z,0.00
2018-04-11T00:25:55.104Z,0.00
2018-04-11T00:26:55.126Z,0.00
2018-04-11T00:27:54.925Z,0.00
2018-04-11T00:28:55.068Z,0.00
2018-04-11T00:29:54.755Z,0.00
2018-04-11T00:30:54.751Z,0.00
2018-04-11T00:31:54.600Z,0.00
2018-04-11T00:32:54.541Z,0.00
2018-04-11T00:33:54.450Z,0.00
2018-04-11T00:34:54.456Z,0.00
2018-04-11T00:35:54.269Z,0.00
2018-04-11T00:36:54.316Z,0.00
2018-04-11T00:37:54.106Z,0.00
2018-04-11T00:38:54.109Z,0.00
2018-04-11T00:39:53.974Z,0.00
2018-04-11T00:40:53.987Z,0.00
2018-04-11T00:41:53.895Z,0.00
2018-04-11T00:42:53.792Z,0.00
2018-04-11T00:43:53.658Z,0.00
2018-04-11T00:44:53.754Z,0.00
2018-04-11T00:45:53.481Z,0.00
2018-04-11T00:46:53.513Z,0.00
2018-04-11T00:47:53.329Z,0.00
2018-04-11T00:48:53.313Z,0.00
2018-04-11T00:49:53.194Z,0.00
2018-04-11T00:50:53.129Z,0.00
2018-04-11T00:51:53.012Z,0.00
2018-04-11T00:52:53.055Z,0.00
2018-04-11T00:53:52.845Z,0.00
2018-04-11T00:54:52.887Z,0.00
2018-04-11T00:55:52.691Z,0.00
2018-04-11T00:56:52.656Z,0.00
2018-04-11T00:57:52.530Z,0.00
2018-04-11T00:58:52.676Z,0.00
2018-04-11T00:59:52.430Z,0.00
2018-04-11T01:00:52.927Z,0.00
2018-04-11T01:01:52.226Z,0.00
2018-04-11T01:02:52.176Z,0.00
2018-04-11T01:03:52.059Z,0.00
2018-04-11T01:04:52.124Z,0.00
2018-04-11T01:05:51.967Z,0.00
2018-04-11T01:06:51.893Z,0.00
2018-04-11T01:07:51.884Z,0.00
2018-04-11T01:08:51.704Z,0.00
2018-04-11T01:09:51.602Z,0.00
2018-04-11T01:10:51.566Z,0.00
2018-04-11T01:11:51.418Z,0.00
2018-04-11T01:12:51.476Z,0.00
2018-04-11T01:13:51.268Z,0.00
2018-04-11T01:14:51.234Z,0.00
2018-04-11T01:15:51.120Z,0.00
2018-04-11T01:16:51.143Z,0.00
2018-04-11T01:17:50.947Z,0.00
2018-04-11T01:18:50.959Z,0.00
2018-04-11T01:19:50.783Z,0.00
2018-04-11T01:20:50.789Z,0.00
2018-04-11T01:21:50.635Z,0.00
2018-04-11T01:22:50.668Z,0.00
2018-04-11T01:23:50.467Z,0.00
2018-04-11T01:24:50.482Z,0.00
2018-04-11T01:25:50.337Z,0.00
2018-04-11T01:26:50.316Z,0.00
2018-04-11T01:27:50.163Z,0.00
2018-04-11T01:28:50.199Z,0.00
2018-04-11T01:29:49.996Z,0.00
2018-04-11T01:30:50.038Z,0.00
2018-04-11T01:31:49.839Z,0.00
2018-04-11T01:32:49.820Z,0.00
2018-04-11T01:33:49.685Z,0.00
2018-04-11T01:34:49.730Z,0.00
2018-04-11T01:35:49.521Z,0.00
2018-04-11T01:36:49.568Z,0.00
2018-04-11T01:37:49.396Z,0.00
2018-04-11T01:38:49.345Z,0.00
2018-04-11T01:39:49.216Z,0.00
2018-04-11T01:40:49.251Z,0.00
2018-04-11T01:41:49.067Z,0.00
2018-04-11T01:42:49.061Z,0.00
2018-04-11T01:43:48.907Z,0.00
2018-04-11T01:44:48.863Z,0.00
2018-04-11T01:45:48.748Z,0.00
2018-04-11T01:46:49.305Z,0.00
2018-04-11T01:47:48.575Z,0.00
2018-04-11T01:48:48.585Z,0.00
2018-04-11T01:49:48.420Z,0.00
2018-04-11T01:50:48.413Z,0.00
2018-04-11T01:51:48.285Z,0.00
2018-04-11T01:52:48.237Z,0.00
2018-04-11T01:53:48.105Z,0.00
2018-04-11T01:54:48.117Z,0.00
2018-04-11T01:55:47.952Z,0.00
2018-04-11T01:56:47.964Z,0.00
2018-04-11T01:57:47.808Z,0.00
2018-04-11T01:58:47.840Z,0.00
2018-04-11T01:59:47.635Z,0.00
2018-04-11T02:00:47.645Z,0.00
2018-04-11T02:01:47.493Z,0.00
2018-04-11T02:02:47.479Z,0.00
2018-04-11T02:03:47.365Z,0.00
2018-04-11T02:04:47.267Z,0.00
2018-04-11T02:05:47.155Z,0.00
2018-04-11T02:06:47.174Z,0.00
2018-04-11T02:07:47.041Z,0.00
2018-04-11T02:08:47.021Z,0.00
2018-04-11T02:09:46.846Z,0.00
2018-04-11T02:10:46.786Z,0.00
2018-04-11T02:11:46.697Z,0.00
2018-04-11T02:12:46.745Z,0.00
2018-04-11T02:13:46.544Z,0.00
2018-04-11T02:14:46.507Z,0.00
2018-04-11T02:15:46.375Z,0.00
2018-04-11T02:16:46.422Z,0.00
2018-04-11T02:17:46.246Z,0.00
2018-04-11T02:18:46.272Z,0.00
2018-04-11T02:19:46.085Z,0.00
2018-04-11T02:20:46.033Z,0.00
2018-04-11T02:21:45.896Z,0.00
2018-04-11T02:22:45.878Z,0.00
2018-04-11T02:23:45.769Z,0.00
2018-04-11T02:24:45.755Z,0.00
2018-04-11T02:25:45.580Z,0.00
2018-04-11T02:26:45.563Z,0.00
2018-04-11T02:27:45.440Z,0.00
2018-04-11T02:28:45.402Z,0.00
2018-04-11T02:29:45.262Z,0.00
2018-04-11T02:30:45.291Z,0.00
2018-04-11T02:31:45.120Z,0.00
2018-04-11T02:32:45.094Z,0.00
2018-04-11T02:33:44.971Z,0.00
2018-04-11T02:34:44.903Z,0.00
2018-04-11T02:35:44.794Z,0.00
2018-04-11T02:36:44.812Z,0.00
2018-04-11T02:37:44.630Z,0.00
2018-04-11T02:38:44.620Z,0.00
2018-04-11T02:39:44.526Z,0.00
2018-04-11T02:40:44.433Z,0.00
2018-04-11T02:41:44.321Z,0.00
2018-04-11T02:42:44.389Z,0.00
2018-04-11T02:43:44.160Z,0.00
2018-04-11T02:44:44.243Z,0.00
2018-04-11T02:45:44.024Z,0.00
2018-04-11T02:46:43.965Z,0.00
2018-04-11T02:47:43.853Z,0.00
2018-04-11T02:48:43.870Z,0.00
2018-04-11T02:49:43.680Z,0.00
2018-04-11T02:50:43.730Z,0.00
2018-04-11T02:51:43.530Z,0.00
2018-04-11T02:52:43.488Z,0.00
2018-04-11T02:53:43.393Z,0.00
2018-04-11T02:54:43.444Z,0.00
2018-04-11T02:55:43.296Z,0.00
2018-04-11T02:56:43.209Z,0.00
2018-04-11T02:57:43.060Z,0.00
2018-04-11T02:58:43.025Z,0.00
2018-04-11T02:59:42.893Z,0.00
2018-04-11T03:00:42.959Z,0.00
2018-04-11T03:01:42.732Z,0.00
2018-04-11T03:02:42.738Z,0.00
2018-04-11T03:03:42.586Z,0.00
2018-04-11T03:04:42.547Z,0.00
2018-04-11T03:05:42.409Z,0.00
2018-04-11T03:06:42.481Z,0.00
2018-04-11T03:07:42.263Z,0.00
2018-04-11T03:08:42.261Z,0.00
2018-04-11T03:09:42.108Z,0.00
2018-04-11T03:10:42.074Z,0.00
2018-04-11T03:11:41.959Z,0.00
2018-04-11T03:12:41.989Z,0.00
2018-04-11T03:13:41.784Z,0.00
2018-04-11T03:14:41.838Z,0.00
2018-04-11T03:15:41.662Z,0.00
2018-04-11T03:16:41.628Z,0.00
2018-04-11T03:17:41.476Z,0.00
2018-04-11T03:18:41.521Z,0.00
2018-04-11T03:19:41.309Z,0.00
2018-04-11T03:20:41.316Z,0.00
2018-04-11T03:21:41.180Z,0.00
2018-04-11T03:22:41.130Z,0.00
2018-04-11T03:23:40.987Z,0.00
2018-04-11T03:24:41.217Z,0.00
2018-04-11T03:25:40.832Z,0.00
2018-04-11T03:26:40.852Z,0.00
2018-04-11T03:27:40.694Z,0.00
2018-04-11T03:28:40.670Z,0.00
2018-04-11T03:29:40.548Z,0.00
2018-04-11T03:30:40.564Z,0.00
2018-04-11T03:31:40.373Z,0.00
2018-04-11T03:32:40.413Z,0.00
2018-04-11T03:33:40.250Z,0.00
2018-04-11T03:34:40.184Z,0.00
2018-04-11T03:35:40.047Z,0.00
2018-04-11T03:36:40.088Z,0.00
2018-04-11T03:37:39.922Z,0.00
2018-04-11T03:40:21.769Z,0.00
2018-04-11T03:41:21.792Z,0.00
2018-04-11T03:42:21.654Z,0.00
2018-04-11T04:08:44.225Z,0.00
2018-04-11T04:09:43.995Z,0.00
2018-04-11T04:12:26.267Z,0.00
2018-04-11T04:13:26.333Z,0.00
2018-04-11T04:14:26.219Z,0.00
2018-04-11T04:15:26.112Z,0.00
2018-04-11T04:16:25.952Z,0.00
2018-04-11T04:17:25.958Z,0.00
2018-04-11T04:18:25.826Z,0.00
2018-04-11T04:19:25.832Z,0.00
2018-04-11T04:20:25.655Z,0.00
2018-04-11T04:23:07.778Z,0.00
2018-04-11T04:24:07.872Z,0.00
2018-04-11T04:25:07.617Z,0.00
2018-04-11T04:26:07.681Z,0.00
2018-04-11T04:27:08.345Z,0.00
2018-04-11T04:28:07.455Z,0.00
2018-04-11T04:29:07.292Z,0.00
2018-04-11T04:30:07.418Z,0.00
2018-04-11T04:31:07.138Z,0.00
2018-04-11T04:32:07.179Z,0.00
2018-04-11T04:33:06.983Z,0.00
2018-04-11T04:34:06.987Z,0.00
2018-04-11T04:35:06.847Z,0.00
2018-04-11T04:36:06.795Z,0.00
2018-04-11T04:37:06.668Z,0.00
2018-04-11T04:38:06.706Z,0.00
2018-04-11T04:39:06.515Z,0.00
2018-04-11T04:40:06.548Z,0.00
2018-04-11T04:41:06.362Z,0.00
2018-04-11T04:42:06.329Z,0.00
2018-04-11T04:43:06.188Z,0.00
2018-04-11T04:44:06.331Z,0.00
2018-04-11T04:45:06.043Z,0.00
2018-04-11T04:46:06.171Z,0.00
2018-04-11T04:47:05.930Z,0.00
2018-04-11T04:49:47.790Z,0.00
2018-04-11T04:50:47.892Z,0.00
2018-04-11T04:51:47.645Z,0.00
2018-04-11T04:52:47.661Z,0.00
2018-04-11T04:53:47.470Z,0.00
2018-04-11T04:54:47.461Z,0.00
2018-04-11T04:55:47.305Z,0.00
2018-04-11T04:56:47.304Z,0.00
2018-04-11T04:57:47.146Z,0.00
2018-04-11T04:58:47.189Z,0.00
2018-04-11T04:59:46.997Z,0.00
2018-04-11T05:00:46.991Z,0.00
2018-04-11T05:01:46.855Z,0.00
2018-04-11T05:02:46.826Z,0.00
2018-04-11T05:03:46.682Z,0.00
2018-04-11T05:04:46.719Z,0.00
2018-04-11T05:05:46.538Z,0.00
2018-04-11T05:06:46.667Z,0.00
2018-04-11T05:07:46.355Z,5.63
2018-04-11T05:08:46.333Z,5.63
2018-04-11T05:09:46.205Z,5.63
2018-04-11T05:10:46.238Z,5.63
2018-04-11T05:11:46.057Z,5.63
2018-04-11T05:12:46.044Z,5.63
2018-04-11T05:13:46.018Z,5.63
2018-04-11T05:14:45.853Z,5.63
2018-04-11T05:15:45.726Z,5.63
2018-04-11T05:16:45.747Z,5.63
2018-04-11T05:17:45.554Z,5.63
2018-04-11T05:18:45.604Z,5.63
2018-04-11T05:19:45.401Z,5.63
2018-04-11T05:20:45.394Z,5.63
2018-04-11T05:21:45.270Z,5.63
2018-04-11T05:22:45.217Z,5.63
2018-04-11T05:23:45.090Z,11.25
2018-04-11T05:24:45.093Z,11.25
2018-04-11T05:25:44.962Z,11.25
2018-04-11T05:26:45.011Z,16.88
2018-04-11T05:27:44.820Z,16.88
2018-04-11T05:28:44.846Z,16.88
2018-04-11T05:29:44.618Z,16.88
2018-04-11T05:30:44.626Z,11.25
2018-04-11T05:31:44.459Z,11.25
2018-04-11T05:32:44.483Z,11.25
2018-04-11T05:33:44.326Z,11.25
2018-04-11T05:34:44.341Z,11.25
2018-04-11T05:35:44.157Z,11.25
2018-04-11T05:36:44.148Z,11.25
2018-04-11T05:37:43.993Z,11.25
2018-04-11T05:38:44.008Z,11.25
2018-04-11T05:39:43.830Z,11.25
2018-04-11T05:40:43.887Z,11.25
2018-04-11T05:41:43.705Z,16.88
2018-04-11T05:42:43.734Z,16.88
2018-04-11T05:43:43.529Z,16.88
2018-04-11T05:44:43.533Z,16.88
2018-04-11T05:45:43.363Z,22.50
2018-04-11T05:46:43.404Z,22.50
2018-04-11T05:47:43.197Z,22.50
2018-04-11T05:48:43.251Z,22.50
2018-04-11T05:49:43.152Z,22.50
2018-04-11T05:50:43.048Z,22.50
2018-04-11T05:51:42.884Z,22.50
2018-04-11T05:52:42.936Z,22.50
2018-04-11T05:53:42.726Z,28.13
2018-04-11T05:54:42.742Z,28.13
2018-04-11T05:55:42.572Z,28.13
2018-04-11T05:56:42.548Z,28.13
2018-04-11T05:57:42.441Z,28.13
2018-04-11T05:58:42.431Z,28.13
2018-04-11T05:59:42.243Z,28.13
2018-04-11T06:00:42.273Z,28.13
2018-04-11T06:01:42.084Z,22.50
2018-04-11T06:02:42.079Z,22.50
2018-04-11T06:03:41.940Z,22.50
2018-04-11T06:04:41.925Z,22.50
2018-04-11T06:05:41.787Z,22.50
2018-04-11T06:06:41.797Z,22.50
2018-04-11T06:07:41.640Z,22.50
2018-04-11T06:08:41.603Z,22.50
2018-04-11T06:09:41.485Z,22.50
2018-04-11T06:10:41.471Z,22.50
2018-04-11T06:11:41.319Z,22.50
2018-04-11T06:12:41.317Z,22.50
2018-04-11T06:13:41.136Z,22.50
2018-04-11T06:14:41.126Z,22.50
2018-04-11T06:15:41.010Z,16.88
2018-04-11T06:16:40.981Z,16.88
2018-04-11T06:17:40.815Z,22.50
2018-04-11T06:18:40.853Z,22.50
2018-04-11T06:19:40.660Z,28.13
2018-04-11T06:20:40.665Z,33.75
2018-04-11T06:21:40.524Z,39.38
2018-04-11T06:22:40.579Z,45.00
2018-04-11T06:23:40.350Z,45.00
2018-04-11T06:24:40.394Z,45.00
2018-04-11T06:25:40.223Z,45.00
2018-04-11T06:26:40.234Z,50.63
2018-04-11T06:27:40.045Z,56.25
2018-04-11T06:28:40.024Z,56.25
2018-04-11T06:29:39.877Z,61.88
2018-04-11T06:30:39.899Z,67.50
2018-04-11T06:31:39.756Z,67.50
2018-04-11T06:32:39.724Z,67.50
2018-04-11T06:33:39.585Z,67.50
2018-04-11T06:34:39.522Z,67.50
2018-04-11T06:35:39.401Z,67.50
2018-04-11T06:36:39.464Z,61.88
2018-04-11T06:37:39.249Z,61.88
2018-04-11T06:38:39.236Z,61.88
2018-04-11T06:39:39.089Z,61.88
2018-04-11T06:40:39.043Z,67.50
2018-04-11T06:41:38.948Z,84.38
2018-04-11T06:42:38.962Z,95.63
2018-04-11T06:43:38.762Z,106.88
2018-04-11T06:44:38.767Z,112.50
2018-04-11T06:45:38.633Z,112.50
2018-04-11T06:46:38.631Z,118.13
2018-04-11T06:47:38.455Z,118.13
2018-04-11T06:48:38.489Z,118.13
2018-04-11T06:49:38.291Z,118.13
2018-04-11T06:50:38.291Z,118.13
2018-04-11T06:51:38.171Z,118.13
2018-04-11T06:52:38.100Z,123.75
2018-04-11T06:53:37.988Z,118.13
2018-04-11T06:54:38.026Z,106.88
2018-04-11T06:55:37.826Z,95.63
2018-04-11T06:56:37.858Z,84.38
2018-04-11T06:57:37.710Z,78.75
2018-04-11T06:58:37.666Z,73.13
2018-04-11T06:59:37.500Z,73.13
2018-04-11T07:00:37.539Z,73.13
2018-04-11T07:01:37.366Z,78.75
2018-04-11T07:02:37.393Z,78.75
2018-04-11T07:03:37.185Z,78.75
2018-04-11T07:04:37.258Z,73.13
2018-04-11T07:05:37.061Z,73.13
2018-04-11T07:06:37.067Z,67.50
2018-04-11T07:07:36.884Z,61.88
2018-04-11T07:08:36.888Z,67.50
2018-04-11T07:09:36.750Z,67.50
2018-04-11T07:10:36.711Z,67.50
2018-04-11T07:11:36.556Z,61.88
2018-04-11T07:12:36.599Z,56.25
2018-04-11T07:13:36.413Z,45.00
2018-04-11T07:14:36.399Z,45.00
2018-04-11T07:15:36.232Z,39.38
2018-04-11T07:16:36.213Z,39.38
2018-04-11T07:17:36.085Z,45.00
2018-04-11T07:18:36.075Z,56.25
2018-04-11T07:19:35.929Z,73.13
2018-04-11T07:20:35.949Z,90.00
2018-04-11T07:21:35.771Z,95.63
2018-04-11T07:22:35.744Z,101.25
2018-04-11T07:23:35.638Z,106.88
2018-04-11T07:24:35.656Z,118.13
2018-04-11T07:25:35.453Z,135.00
2018-04-11T07:26:35.467Z,146.25
2018-04-11T07:27:35.287Z,135.00
2018-04-11T07:28:35.300Z,129.38
2018-04-11T07:29:35.137Z,135.00
2018-04-11T07:30:35.182Z,140.63
2018-04-11T07:31:34.987Z,140.63
2018-04-11T07:32:35.222Z,135.00
2018-04-11T07:33:34.857Z,129.38
2018-04-11T07:36:16.806Z,123.75
2018-04-11T07:37:16.794Z,112.50
2018-04-11T07:38:16.688Z,95.63
2018-04-11T07:39:16.645Z,90.00
2018-04-11T07:40:16.552Z,84.38
2018-04-11T07:41:16.558Z,78.75
2018-04-11T07:42:16.354Z,73.13
2018-04-11T07:43:16.329Z,67.50
2018-04-11T07:44:16.202Z,67.50
2018-04-11T07:45:16.290Z,61.88
2018-04-11T07:46:16.110Z,56.25
2018-04-11T07:47:16.033Z,56.25
2018-04-11T07:48:15.862Z,61.88
2018-04-11T07:49:15.893Z,73.13
2018-04-11T07:50:15.740Z,101.25
2018-04-11T07:51:15.758Z,118.13
2018-04-11T07:52:15.559Z,112.50
2018-04-11T07:53:15.569Z,101.25
2018-04-11T07:54:15.432Z,101.25
2018-04-11T07:55:15.440Z,101.25
2018-04-11T07:56:15.232Z,101.25
2018-04-11T07:57:15.164Z,106.88
2018-04-11T07:58:15.077Z,118.13
2018-04-11T07:59:15.110Z,129.38
2018-04-11T08:00:14.933Z,129.38
2018-04-11T08:01:14.926Z,129.38
2018-04-11T08:02:14.768Z,140.63
2018-04-11T08:03:14.882Z,151.88
2018-04-11T08:04:14.637Z,157.50
2018-04-11T08:05:14.667Z,168.75
2018-04-11T08:06:14.451Z,185.63
2018-04-11T08:07:15.393Z,202.50
2018-04-11T08:08:14.287Z,191.25
2018-04-11T08:09:14.347Z,168.75
2018-04-11T08:10:14.147Z,163.13
2018-04-11T08:11:14.153Z,157.50
2018-04-11T08:12:13.970Z,157.50
2018-04-11T08:13:13.964Z,157.50
2018-04-11T08:14:13.810Z,180.00
2018-04-11T08:15:13.796Z,202.50
2018-04-11T08:16:13.677Z,208.13
2018-04-11T08:17:13.687Z,191.25
2018-04-11T08:18:13.500Z,174.38
2018-04-11T08:19:13.485Z,168.75
2018-04-11T08:20:13.361Z,174.38
2018-04-11T08:21:13.388Z,180.00
2018-04-11T08:22:13.181Z,180.00
2018-04-11T08:23:13.252Z,174.38
2018-04-11T08:24:13.065Z,157.50
2018-04-11T08:25:13.050Z,140.63
2018-04-11T08:26:12.863Z,123.75
2018-04-11T08:27:12.833Z,118.13
2018-04-11T08:28:12.721Z,123.75
2018-04-11T08:29:12.672Z,123.75
2018-04-11T08:30:12.863Z,123.75
2018-04-11T08:31:12.535Z,123.75
2018-04-11T08:32:12.416Z,118.13
2018-04-11T08:33:12.527Z,106.88
2018-04-11T08:34:12.245Z,101.25
2018-04-11T08:35:12.173Z,101.25
2018-04-11T08:36:12.471Z,112.50
2018-04-11T08:37:12.014Z,135.00
2018-04-11T08:38:11.919Z,157.50
2018-04-11T08:39:11.927Z,174.38
2018-04-11T08:40:11.853Z,185.63
2018-04-11T08:41:11.792Z,225.00
2018-04-11T08:42:11.603Z,270.00
2018-04-11T08:43:11.535Z,275.63
2018-04-11T08:44:11.448Z,236.25
2018-04-11T08:45:11.805Z,208.13
2018-04-11T08:46:11.379Z,208.13
2018-04-11T08:48:53.325Z,191.25
2018-04-11T08:49:53.314Z,191.25
2018-04-11T08:50:53.199Z,208.13
2018-04-11T08:51:53.221Z,241.88
2018-04-11T08:52:53.032Z,270.00
2018-04-11T08:53:53.033Z,286.88
2018-04-11T08:54:52.864Z,275.63
2018-04-11T08:55:52.807Z,247.50
2018-04-11T08:56:52.707Z,225.00
2018-04-11T08:57:52.755Z,230.63
2018-04-11T08:58:52.554Z,253.13
2018-04-11T08:59:52.564Z,264.38
2018-04-11T09:00:52.420Z,270.00
2018-04-11T09:01:52.368Z,258.75
2018-04-11T09:02:52.254Z,253.13
2018-04-11T09:03:52.322Z,264.38
2018-04-11T09:04:52.133Z,253.13
2018-04-11T09:05:52.034Z,219.38
2018-04-11T09:06:51.951Z,202.50
2018-04-11T09:07:51.980Z,213.75
2018-04-11T09:08:51.949Z,225.00
2018-04-11T09:09:51.785Z,225.00
2018-04-11T09:10:51.624Z,230.63
2018-04-11T09:11:51.556Z,225.00
2018-04-11T09:12:51.459Z,202.50
2018-04-11T09:13:51.393Z,191.25
2018-04-11T09:14:51.328Z,191.25
2018-04-11T09:15:51.378Z,191.25
2018-04-11T09:16:51.632Z,196.88
2018-04-11T09:17:51.145Z,191.25
2018-04-11T09:18:50.982Z,191.25
2018-04-11T09:19:50.911Z,191.25
2018-04-11T09:20:50.845Z,196.88
2018-04-11T09:21:50.799Z,202.50
2018-04-11T09:22:50.661Z,196.88
2018-04-11T09:23:50.669Z,180.00
2018-04-11T09:24:50.501Z,157.50
2018-04-11T09:25:50.451Z,140.63
2018-04-11T09:26:50.375Z,140.63
2018-04-11T09:27:50.385Z,135.00
2018-04-11T09:28:50.187Z,129.38
2018-04-11T09:29:50.119Z,129.38
2018-04-11T09:30:50.043Z,123.75
2018-04-11T09:31:50.063Z,123.75
2018-04-11T09:32:49.940Z,118.13
2018-04-11T09:33:49.939Z,112.50
2018-04-11T09:34:49.707Z,112.50
2018-04-11T09:35:50.432Z,112.50
2018-04-11T09:36:49.589Z,112.50
2018-04-11T09:37:49.580Z,112.50
2018-04-11T09:38:49.475Z,118.13
2018-04-11T09:39:49.331Z,118.13
2018-04-11T09:40:49.240Z,123.75
2018-04-11T09:41:49.255Z,129.38
2018-04-11T09:42:49.101Z,129.38
2018-04-11T09:43:49.009Z,135.00
2018-04-11T09:44:48.920Z,140.63
2018-04-11T09:45:48.855Z,140.63
2018-04-11T09:46:48.771Z,151.88
2018-04-11T09:47:48.716Z,163.13
2018-04-11T09:48:49.452Z,168.75
2018-04-11T09:49:48.551Z,180.00
2018-04-11T09:50:48.463Z,191.25
2018-04-11T09:51:48.458Z,191.25
2018-04-11T09:52:48.304Z,191.25
2018-04-11T09:53:48.242Z,196.88
2018-04-11T09:54:48.130Z,196.88
2018-04-11T09:55:48.085Z,180.00
2018-04-11T09:56:47.981Z,168.75
2018-04-11T09:57:47.925Z,168.75
2018-04-11T09:58:47.817Z,180.00
2018-04-11T09:59:47.749Z,202.50
2018-04-11T10:00:47.681Z,236.25
2018-04-11T10:01:47.593Z,258.75
2018-04-11T10:02:47.530Z,270.00
2018-04-11T10:03:47.463Z,270.00
2018-04-11T10:04:47.342Z,286.88
2018-04-11T10:05:47.290Z,286.88
2018-04-11T10:06:47.182Z,275.63
2018-04-11T10:07:47.127Z,253.13
2018-04-11T10:08:47.056Z,230.63
2018-04-11T10:09:46.965Z,219.38
2018-04-11T10:10:46.876Z,219.38
2018-04-11T10:11:46.861Z,208.13
2018-04-11T10:12:46.742Z,196.88
2018-04-11T10:13:46.640Z,191.25
2018-04-11T10:14:46.592Z,202.50
2018-04-11T10:15:46.494Z,213.75
2018-04-11T10:16:46.397Z,225.00
2018-04-11T10:17:46.327Z,213.75
2018-04-11T10:18:46.264Z,202.50
2018-04-11T10:19:46.186Z,208.13
2018-04-11T10:20:46.107Z,225.00
2018-04-11T10:21:46.036Z,241.88
2018-04-11T10:22:45.946Z,241.88
2018-04-11T10:23:45.863Z,241.88
2018-04-11T10:24:45.801Z,241.88
2018-04-11T10:25:45.700Z,241.88
2018-04-11T10:26:45.625Z,236.25
2018-04-11T10:27:45.547Z,213.75
2018-04-11T10:28:45.465Z,191.25
2018-04-11T10:29:45.397Z,174.38
2018-04-11T10:30:45.308Z,168.75
2018-04-11T10:31:45.252Z,180.00
2018-04-11T10:32:45.187Z,191.25
2018-04-11T10:33:45.125Z,196.88
2018-04-11T10:34:44.999Z,191.25
2018-04-11T10:35:44.954Z,180.00
2018-04-11T10:36:44.854Z,174.38
2018-04-11T10:37:44.775Z,163.13
2018-04-11T10:38:44.689Z,163.13
2018-04-11T10:39:44.637Z,163.13
2018-04-11T10:40:44.513Z,163.13
2018-04-11T10:41:44.498Z,168.75
2018-04-11T10:42:44.373Z,180.00
2018-04-11T10:43:44.298Z,185.63
2018-04-11T10:44:44.224Z,180.00
2018-04-11T10:45:44.148Z,168.75
2018-04-11T10:46:44.051Z,163.13
2018-04-11T10:47:44.088Z,157.50
2018-04-11T10:48:43.900Z,146.25
2018-04-11T10:49:43.831Z,140.63
2018-04-11T10:50:43.743Z,146.25
2018-04-11T10:51:43.683Z,151.88
2018-04-11T10:52:43.640Z,163.13
2018-04-11T10:53:43.530Z,168.75
2018-04-11T10:54:43.503Z,163.13
2018-04-11T10:55:43.364Z,157.50
2018-04-11T10:56:43.330Z,151.88
2018-04-11T10:57:43.221Z,146.25
2018-04-11T10:58:43.094Z,146.25
2018-04-11T10:59:43.041Z,151.88
2018-04-11T11:00:42.942Z,157.50
2018-04-11T11:01:42.887Z,151.88
2018-04-11T11:02:42.792Z,135.00
2018-04-11T11:03:42.726Z,129.38
2018-04-11T11:04:42.626Z,129.38
2018-04-11T11:05:42.567Z,146.25
2018-04-11T11:06:42.549Z,151.88
2018-04-11T11:07:42.424Z,157.50
2018-04-11T11:08:42.336Z,151.88
2018-04-11T11:09:42.253Z,146.25
2018-04-11T11:10:42.164Z,140.63
2018-04-11T11:11:42.116Z,135.00
2018-04-11T11:12:42.018Z,118.13
2018-04-11T11:13:41.937Z,112.50
2018-04-11T11:14:41.857Z,112.50
2018-04-11T11:15:41.795Z,123.75
2018-04-11T11:16:41.681Z,140.63
2018-04-11T11:17:41.641Z,151.88
2018-04-11T11:18:41.525Z,168.75
2018-04-11T11:19:41.456Z,191.25
2018-04-11T11:20:41.358Z,219.38
2018-04-11T11:21:41.298Z,253.13
2018-04-11T11:22:41.236Z,275.63
2018-04-11T11:23:41.242Z,281.25
2018-04-11T11:24:41.046Z,270.00
2018-04-11T11:25:41.004Z,264.38
2018-04-11T11:26:41.432Z,270.00
2018-04-11T11:27:40.852Z,264.38
2018-04-11T11:28:40.736Z,247.50
2018-04-11T11:29:40.706Z,225.00
2018-04-11T11:30:40.605Z,208.13
2018-04-11T11:31:40.514Z,196.88
2018-04-11T11:32:40.447Z,191.25
2018-04-11T11:33:40.380Z,191.25
2018-04-11T11:34:40.277Z,191.25
2018-04-11T11:35:40.220Z,180.00
2018-04-11T11:36:40.107Z,168.75
2018-04-11T11:37:40.049Z,151.88
2018-04-11T11:38:39.971Z,135.00
2018-04-11T11:39:39.886Z,118.13
2018-04-11T11:40:39.793Z,95.63
2018-04-11T11:41:39.727Z,84.38
2018-04-11T11:42:39.634Z,73.13
2018-04-11T11:43:39.668Z,73.13
2018-04-11T11:44:39.480Z,84.38
2018-04-11T11:45:39.465Z,95.63
2018-04-11T11:46:39.331Z,95.63
2018-04-11T11:47:39.325Z,90.00
2018-04-11T11:48:39.161Z,95.63
2018-04-11T11:49:39.213Z,101.25
2018-04-11T11:50:39.083Z,106.88
2018-04-11T11:51:39.060Z,129.38
2018-04-11T11:52:38.856Z,140.63
2018-04-11T11:53:38.866Z,146.25
2018-04-11T11:54:38.697Z,146.25
2018-04-11T11:55:38.713Z,146.25
2018-04-11T11:56:38.545Z,151.88
2018-04-11T11:57:38.572Z,157.50
2018-04-11T11:58:38.372Z,146.25
2018-04-11T11:59:38.595Z,151.88
2018-04-11T12:00:38.230Z,163.13
2018-04-11T12:01:38.194Z,174.38
2018-04-11T12:02:38.182Z,196.88
2018-04-11T12:03:38.121Z,219.38
2018-04-11T12:04:37.922Z,241.88
2018-04-11T12:05:38.060Z,264.38
2018-04-11T12:06:37.773Z,286.88
2018-04-11T12:07:37.720Z,315.00
2018-04-11T12:08:37.591Z,331.88
2018-04-11T12:09:37.557Z,354.38
2018-04-11T12:10:37.454Z,382.50
2018-04-11T12:11:37.392Z,416.25
2018-04-11T12:12:37.283Z,455.63
2018-04-11T12:13:37.249Z,478.13
2018-04-11T12:14:37.165Z,500.63
2018-04-11T12:15:37.165Z,478.13
2018-04-11T12:16:36.962Z,421.88
2018-04-11T12:17:36.974Z,382.50
2018-04-11T12:18:36.793Z,376.88
2018-04-11T12:19:36.843Z,399.38
2018-04-11T12:20:36.664Z,438.75
2018-04-11T12:21:36.691Z,472.50
2018-04-11T12:22:36.528Z,511.88
2018-04-11T12:23:36.503Z,540.00
2018-04-11T12:24:36.333Z,534.38
2018-04-11T12:25:36.349Z,528.75
2018-04-11T12:26:36.206Z,556.88
2018-04-11T12:27:36.107Z,556.88
2018-04-11T12:28:36.040Z,534.38
2018-04-11T12:29:36.053Z,540.00
2018-04-11T12:30:35.896Z,585.00
2018-04-11T12:31:35.804Z,652.50
2018-04-11T12:32:35.784Z,714.38
2018-04-11T12:33:35.745Z,697.50
2018-04-11T12:34:35.548Z,675.00
2018-04-11T12:35:35.556Z,635.63
2018-04-11T12:36:35.473Z,562.50
2018-04-11T12:37:35.408Z,478.13
2018-04-11T12:38:35.246Z,427.50
2018-04-11T12:39:35.274Z,405.00
2018-04-11T12:40:35.128Z,388.13
2018-04-11T12:41:35.075Z,365.63
2018-04-11T12:42:34.934Z,343.13
2018-04-11T12:43:34.884Z,320.63
2018-04-11T12:44:34.802Z,303.75
2018-04-11T12:45:34.888Z,303.75
2018-04-11T12:46:34.615Z,315.00
2018-04-11T12:49:16.908Z,348.75
2018-04-11T12:50:16.966Z,365.63
2018-04-11T12:51:16.757Z,376.88
2018-04-11T12:52:16.731Z,382.50
2018-04-11T12:53:16.595Z,388.13
2018-04-11T12:54:16.645Z,405.00
2018-04-11T12:55:16.433Z,410.63
2018-04-11T12:56:16.478Z,444.38
2018-04-11T12:57:16.283Z,461.25
2018-04-11T12:58:16.247Z,444.38
2018-04-11T12:59:16.112Z,461.25
2018-04-11T13:00:16.199Z,500.63
2018-04-11T13:01:15.974Z,495.00
2018-04-11T13:02:15.974Z,461.25
2018-04-11T13:03:15.822Z,438.75
2018-04-11T13:04:15.776Z,450.00
2018-04-11T13:05:15.642Z,478.13
2018-04-11T13:06:15.726Z,517.50
2018-04-11T13:07:15.506Z,590.63
2018-04-11T13:08:15.496Z,562.50
2018-04-11T13:09:15.328Z,556.88
2018-04-11T13:10:15.292Z,590.63
2018-04-11T13:11:15.197Z,635.63
2018-04-11T13:12:15.227Z,720.00
2018-04-11T13:13:15.020Z,669.38
2018-04-11T13:14:15.020Z,590.63
2018-04-11T13:15:14.870Z,573.75
2018-04-11T13:16:14.821Z,646.88
2018-04-11T13:17:14.774Z,641.25
2018-04-11T13:18:14.670Z,680.63
2018-04-11T13:19:14.554Z,708.75
2018-04-11T13:20:14.661Z,680.63
2018-04-11T13:21:14.391Z,652.50
2018-04-11T13:22:14.402Z,618.75
2018-04-11T13:23:14.259Z,551.25
2018-04-11T13:24:15.085Z,568.13
2018-04-11T13:25:14.110Z,675.00
2018-04-11T13:26:14.097Z,736.88
2018-04-11T13:27:13.943Z,658.13